Terminal Aerodrome Forecast
Issued by NWS

Home | Current Version | Previous Version | Text Only | Print | Product List | Glossary On
Versions: 1 2 3 4 5 6 7 8 9 10 11 12 13 14 15
000
FTUS46 KHNX 210829 AAA
TAFVIS
TAF AMD
KVIS 210829Z 2108/2206 VRB03KT 1SM BR OVC005
     FM211000 VRB03KT 1/4SM FG OVC001
     FM211900 VRB03KT 5SM BR SCT035 BKN050=

USA.gov is the U.S. government's official web portal to all federal, state and local government web resources and services.